CZ-0139 weather

CLOSED Letiště Košice u Tábora
Košice u Tábora, South Bohemian Region, Czechia

Public forecast

Using degrees Celsius for public forecast. Weather courtesy of forecast.io.

METAR (pilot weather report)

Closest report is Čáslav Air Base, 44.7 nm (82.8 km) NNE. Retrieved 2019/07/18 18:00 UTC (29 minutes ago):

LKCV 181800Z 23003KT CAVOK 25/10 Q1012 NOSIG RMK BLU BLU

TAF (pilot weather forecast)

Closest forecast is Čáslav Air Base, 44.7 nm (82.8 km) NNE. Retrieved 2019/07/18 18:00 UTC (29 minutes ago):

TAF LKCV 181700Z 1818/1918 27004KT CAVOK BECMG 1906/1908 9999 SCT030 TEMPO 1909/1918 26009KT 7000 SHRA BKN022 BKN040